createdAt,value
2022-08-10T00:01:34.483Z,12.85
2022-08-10T00:04:02.227Z,13.80
2022-08-10T00:06:29.184Z,10.95
2022-08-10T00:08:55.859Z,8.68
2022-08-10T00:11:22.880Z,9.52
2022-08-10T00:13:49.747Z,10.18
2022-08-10T00:16:16.483Z,15.20
2022-08-10T00:18:43.231Z,7.60
2022-08-10T00:21:11.032Z,9.93
2022-08-10T00:23:38.440Z,8.68
2022-08-10T00:26:06.748Z,8.18
2022-08-10T00:28:33.552Z,12.70
2022-08-10T00:31:00.227Z,10.50
2022-08-10T00:33:26.974Z,12.20
2022-08-10T00:35:53.657Z,14.27
2022-08-10T00:38:20.525Z,13.70
2022-08-10T00:40:47.234Z,9.15
2022-08-10T00:43:13.898Z,8.60
2022-08-10T00:45:40.660Z,12.90
2022-08-10T00:48:07.341Z,12.38
2022-08-10T00:50:34.467Z,10.48
2022-08-10T00:53:01.782Z,10.48
2022-08-10T00:55:28.887Z,9.60
2022-08-10T00:57:56.250Z,11.05
2022-08-10T01:00:24.102Z,9.35
2022-08-10T01:02:50.849Z,9.02
2022-08-10T01:05:20.185Z,10.82
2022-08-10T01:08:19.698Z,14.30
2022-08-10T01:10:58.463Z,10.23
2022-08-10T01:13:33.621Z,9.35
2022-08-10T01:16:18.402Z,10.27
2022-08-10T01:18:47.714Z,7.72
2022-08-10T01:21:26.743Z,6.85
2022-08-10T01:24:16.927Z,11.30
2022-08-10T01:27:13.571Z,10.80
2022-08-10T01:30:20.040Z,11.95
2022-08-10T01:32:51.598Z,9.98
2022-08-10T01:35:41.373Z,11.18
2022-08-10T01:38:37.522Z,11.43
2022-08-10T01:41:12.061Z,10.13
2022-08-10T01:43:54.402Z,12.55
2022-08-10T01:46:24.402Z,11.05
2022-08-10T01:48:57.061Z,9.20
2022-08-10T01:51:37.468Z,11.48
2022-08-10T01:54:12.592Z,10.65
2022-08-10T01:56:44.168Z,9.25
2022-08-10T01:59:19.828Z,8.60
2022-08-10T02:01:53.682Z,10.48
2022-08-10T02:04:21.626Z,12.70
2022-08-10T02:06:53.259Z,9.82
2022-08-10T02:09:34.508Z,11.63
2022-08-10T02:12:08.965Z,8.63
2022-08-10T02:14:45.012Z,8.80
2022-08-10T02:17:58.637Z,12.85
2022-08-10T02:20:31.460Z,16.33
2022-08-10T02:23:02.449Z,15.13
2022-08-10T02:25:41.066Z,9.52
2022-08-10T02:28:12.412Z,11.35
2022-08-10T02:30:57.636Z,9.43
2022-08-10T02:33:27.724Z,9.23
2022-08-10T02:35:56.158Z,10.93
2022-08-10T02:38:59.559Z,11.32
2022-08-10T02:45:15.846Z,10.82
2022-08-10T02:45:21.462Z,9.13
2022-08-10T02:47:22.224Z,12.43
2022-08-10T02:50:02.283Z,10.35
2022-08-10T02:52:38.798Z,10.68
2022-08-10T02:55:18.103Z,9.85
2022-08-10T02:58:13.327Z,14.10
2022-08-10T03:00:46.578Z,12.82
2022-08-10T03:03:20.182Z,10.00
2022-08-10T03:05:51.122Z,11.98
2022-08-10T03:08:21.360Z,11.27
2022-08-10T03:10:49.634Z,15.18
2022-08-10T03:13:18.756Z,11.25
2022-08-10T03:15:46.887Z,11.77
2022-08-10T03:18:14.290Z,11.13
2022-08-10T03:20:42.976Z,15.45
2022-08-10T03:23:16.390Z,14.30
2022-08-10T03:25:53.578Z,11.73
2022-08-10T03:28:26.988Z,15.48
2022-08-10T03:30:54.823Z,9.10
2022-08-10T03:33:22.777Z,11.63
2022-08-10T03:36:41.783Z,13.93
2022-08-10T03:38:40.451Z,10.95
2022-08-10T03:41:11.516Z,10.50
2022-08-10T03:43:46.447Z,12.88
2022-08-10T03:46:15.425Z,12.13
2022-08-10T03:48:49.465Z,14.88
2022-08-10T03:51:18.765Z,13.00
2022-08-10T03:54:05.557Z,9.23
2022-08-10T03:56:34.780Z,11.07
2022-08-10T03:59:02.145Z,10.63
2022-08-10T04:02:47.140Z,8.80
2022-08-10T04:04:23.293Z,9.38
2022-08-10T04:06:54.700Z,13.65
2022-08-10T04:09:22.791Z,11.50
2022-08-10T04:11:49.534Z,13.38
2022-08-10T04:14:38.370Z,10.43
2022-08-10T04:17:02.793Z,17.50
2022-08-10T04:19:35.470Z,11.60
2022-08-10T04:22:10.277Z,10.85
2022-08-10T04:24:39.066Z,13.63
2022-08-10T04:27:05.944Z,12.60
2022-08-10T04:29:32.644Z,13.40
2022-08-10T04:32:01.421Z,9.75
2022-08-10T04:34:31.930Z,10.48
2022-08-10T04:37:05.437Z,11.77
2022-08-10T04:39:35.078Z,12.75
2022-08-10T04:42:01.976Z,12.27
2022-08-10T04:44:28.740Z,9.65
2022-08-10T04:46:58.329Z,14.35
2022-08-10T04:49:56.484Z,9.80
2022-08-10T04:52:13.345Z,9.93
2022-08-10T04:54:40.239Z,12.90
2022-08-10T04:57:09.032Z,9.98
2022-08-10T04:59:35.874Z,12.63
2022-08-10T05:02:29.516Z,9.52
2022-08-10T05:04:49.270Z,9.45
2022-08-10T05:07:18.230Z,16.15
2022-08-10T05:10:04.588Z,13.98
2022-08-10T05:12:38.802Z,11.20
2022-08-10T05:15:11.708Z,13.43
2022-08-10T05:17:39.695Z,16.52
2022-08-10T05:20:08.694Z,11.95
2022-08-10T05:22:43.244Z,13.98
2022-08-10T05:25:16.091Z,15.30
2022-08-10T05:27:44.852Z,19.63
2022-08-10T05:30:19.781Z,15.35
2022-08-10T05:32:56.036Z,12.95
2022-08-10T05:35:27.353Z,12.45
2022-08-10T05:38:09.086Z,15.27
2022-08-10T05:40:42.704Z,15.38
2022-08-10T05:43:18.362Z,11.23
2022-08-10T05:46:17.288Z,14.57
2022-08-10T05:48:41.845Z,13.77
2022-08-10T05:51:20.748Z,14.82
2022-08-10T05:54:02.155Z,15.80
2022-08-10T05:56:54.970Z,17.10
2022-08-10T06:00:29.376Z,21.52
2022-08-10T06:02:41.784Z,17.10
2022-08-10T06:05:11.700Z,16.05
2022-08-10T06:07:42.676Z,18.08
2022-08-10T06:10:12.973Z,17.42
2022-08-10T06:12:55.179Z,17.45
2022-08-10T06:15:50.205Z,20.20
2022-08-10T06:18:13.848Z,17.02
2022-08-10T06:20:41.658Z,17.38
2022-08-10T06:23:08.550Z,17.90
2022-08-10T06:26:11.038Z,20.58
2022-08-10T06:28:23.260Z,19.30
2022-08-10T06:30:52.221Z,19.00
2022-08-10T06:33:21.283Z,18.27
2022-08-10T06:35:53.788Z,22.63
2022-08-10T06:38:23.622Z,15.13
2022-08-10T06:40:53.547Z,17.80
2022-08-10T06:43:23.689Z,18.88
2022-08-10T06:46:06.828Z,21.65
2022-08-10T06:48:37.920Z,17.30
2022-08-10T06:51:14.312Z,15.00
2022-08-10T06:53:53.846Z,21.02
2022-08-10T06:56:36.094Z,17.33
2022-08-10T06:59:27.063Z,26.60
2022-08-10T07:01:59.688Z,15.30
2022-08-10T07:04:43.607Z,18.02
2022-08-10T07:07:18.684Z,16.25
2022-08-10T07:09:47.082Z,14.88
2022-08-10T07:12:15.473Z,12.05
2022-08-10T07:14:45.524Z,14.13
2022-08-10T07:17:19.074Z,18.30
2022-08-10T07:19:52.228Z,21.15
2022-08-10T07:23:22.897Z,22.40
2022-08-10T07:25:15.080Z,17.70
2022-08-10T07:28:00.815Z,16.77
2022-08-10T07:30:31.626Z,15.45
2022-08-10T07:33:00.469Z,17.48
2022-08-10T07:35:34.652Z,14.15
2022-08-10T07:38:07.584Z,12.32
2022-08-10T07:40:35.426Z,15.70
2022-08-10T07:43:02.866Z,14.43
2022-08-10T07:45:32.856Z,11.02
2022-08-10T07:48:07.934Z,14.27
2022-08-10T07:50:38.090Z,11.80
2022-08-10T07:53:07.207Z,14.93
2022-08-10T07:56:05.506Z,16.05
2022-08-10T07:58:28.636Z,9.27
2022-08-10T08:00:57.478Z,11.88
2022-08-10T08:03:27.441Z,13.95
2022-08-10T08:06:03.335Z,12.55
2022-08-10T08:08:33.457Z,12.38
2022-08-10T08:11:01.440Z,11.98
2022-08-10T08:13:29.614Z,10.35
2022-08-10T08:16:19.149Z,11.40
2022-08-10T08:18:58.310Z,12.35
2022-08-10T08:24:10.410Z,17.08
2022-08-10T08:24:32.704Z,11.05
2022-08-10T08:27:03.044Z,8.88
2022-08-10T08:29:34.123Z,14.05
2022-08-10T08:32:03.725Z,9.90
2022-08-10T08:34:32.670Z,10.90
2022-08-10T08:37:01.111Z,12.25
2022-08-10T08:39:28.437Z,10.20
2022-08-10T08:42:14.182Z,8.85
2022-08-10T08:44:55.965Z,11.55
2022-08-10T08:48:04.190Z,12.13
2022-08-10T08:50:53.963Z,10.75
2022-08-10T08:54:06.307Z,10.70
2022-08-10T08:56:58.503Z,11.45
2022-08-10T08:59:44.276Z,12.80
2022-08-10T09:02:22.547Z,5.70
2022-08-10T09:05:14.929Z,6.75
2022-08-10T09:08:10.458Z,5.00
2022-08-10T09:11:08.632Z,6.22
2022-08-10T09:13:43.565Z,5.32
2022-08-10T09:16:28.912Z,4.38
2022-08-10T09:19:35.371Z,5.63
2022-08-10T09:22:42.884Z,8.57
2022-08-10T09:25:16.977Z,3.38
2022-08-10T09:27:49.575Z,5.15
2022-08-10T09:30:32.170Z,6.20
2022-08-10T09:36:24.974Z,4.20
2022-08-10T09:36:29.912Z,7.53
2022-08-10T09:40:12.315Z,4.55
2022-08-10T09:43:24.860Z,6.88
2022-08-10T09:46:11.898Z,7.60
2022-08-10T09:49:25.823Z,4.88
2022-08-10T09:52:09.659Z,5.47
2022-08-10T09:54:51.193Z,5.18
2022-08-10T09:57:43.400Z,3.35
2022-08-10T10:00:16.566Z,7.07
2022-08-10T10:02:44.033Z,8.27
2022-08-10T10:05:31.081Z,6.90
2022-08-10T10:08:17.860Z,5.55
2022-08-10T10:11:02.551Z,5.30
2022-08-10T10:13:44.743Z,4.13
2022-08-10T10:16:52.245Z,4.72
2022-08-10T10:19:43.240Z,7.18
2022-08-10T10:22:37.988Z,4.83
2022-08-10T10:25:50.252Z,6.38
2022-08-10T10:28:51.329Z,4.13
2022-08-10T10:31:37.537Z,5.50
2022-08-10T10:34:10.103Z,6.22
2022-08-10T10:36:40.016Z,5.28
2022-08-10T10:39:07.769Z,6.47
2022-08-10T10:42:42.331Z,9.27
2022-08-10T10:45:50.567Z,19.38
2022-08-10T10:48:24.157Z,6.82
2022-08-10T10:51:34.169Z,6.78
2022-08-10T10:54:24.741Z,6.68
2022-08-10T10:57:17.505Z,8.68
2022-08-10T10:59:55.016Z,10.68
2022-08-10T11:02:45.574Z,6.55
2022-08-10T11:05:52.891Z,6.63
2022-08-10T11:08:47.856Z,4.55
2022-08-10T11:12:00.529Z,4.60
2022-08-10T11:14:33.211Z,6.75
2022-08-10T11:17:14.747Z,3.60
2022-08-10T11:20:02.817Z,6.70
2022-08-10T11:22:46.371Z,5.50
2022-08-10T11:25:33.055Z,5.63
2022-08-10T11:28:26.090Z,7.82
2022-08-10T11:31:01.685Z,14.25
2022-08-10T11:34:03.920Z,4.63
2022-08-10T11:36:51.437Z,4.40
2022-08-10T11:39:33.158Z,4.68
2022-08-10T11:45:22.299Z,6.85
2022-08-10T11:47:53.300Z,4.95
2022-08-10T11:50:34.866Z,4.97
2022-08-10T11:53:19.958Z,3.50
2022-08-10T11:55:54.131Z,6.70
2022-08-10T11:58:41.434Z,7.32
2022-08-10T12:01:13.487Z,8.60
2022-08-10T12:03:42.748Z,5.45
2022-08-10T12:06:15.487Z,9.07
2022-08-10T12:10:09.588Z,9.48
2022-08-10T12:11:31.162Z,12.05
2022-08-10T12:14:23.385Z,13.45
2022-08-10T12:17:05.507Z,13.82
2022-08-10T12:19:59.857Z,13.80
2022-08-10T12:22:34.253Z,10.55
2022-08-10T12:25:08.633Z,13.07
2022-08-10T12:27:54.825Z,11.25
2022-08-10T12:30:36.173Z,7.38
2022-08-10T12:34:01.336Z,10.57
2022-08-10T12:36:36.624Z,7.40
2022-08-10T12:39:25.302Z,10.10
2022-08-10T12:42:00.396Z,9.80
2022-08-10T12:44:57.739Z,8.80
2022-08-10T12:47:44.931Z,7.78
2022-08-10T12:50:37.654Z,9.77
2022-08-10T12:53:17.524Z,12.80
2022-08-10T12:55:45.779Z,11.80
2022-08-10T12:58:57.324Z,7.90
2022-08-10T13:01:16.738Z,7.18
2022-08-10T13:04:20.822Z,10.52
2022-08-10T13:06:36.938Z,7.68
2022-08-10T13:09:09.738Z,8.40
2022-08-10T13:12:35.530Z,5.20
2022-08-10T13:14:47.637Z,11.07
2022-08-10T13:17:21.252Z,8.00
2022-08-10T13:19:55.230Z,6.32
2022-08-10T13:22:27.185Z,7.28
2022-08-10T13:24:58.583Z,7.82
2022-08-10T13:28:00.840Z,7.40
2022-08-10T13:33:05.837Z,10.55
2022-08-10T13:35:33.903Z,7.65
2022-08-10T13:38:02.932Z,13.98
2022-08-10T13:40:32.229Z,8.95
2022-08-10T13:43:01.797Z,9.82
2022-08-10T13:45:29.428Z,5.60
2022-08-10T13:48:21.664Z,5.22
2022-08-10T13:50:52.201Z,8.70
2022-08-10T13:53:19.714Z,6.95
2022-08-10T13:55:55.320Z,7.65
2022-08-10T13:58:44.544Z,6.78
2022-08-10T14:01:16.399Z,5.90
2022-08-10T14:06:14.061Z,6.93
2022-08-10T14:08:48.247Z,9.65
2022-08-10T14:11:18.334Z,5.57
2022-08-10T14:13:58.204Z,7.53
2022-08-10T14:16:25.774Z,8.68
2022-08-10T14:18:54.891Z,7.63
2022-08-10T14:21:22.327Z,7.75
2022-08-10T14:23:53.122Z,5.25
2022-08-10T14:26:30.784Z,9.30
2022-08-10T14:29:05.537Z,8.55
2022-08-10T14:31:34.940Z,8.15
2022-08-10T14:34:05.003Z,9.65
2022-08-10T14:36:53.272Z,11.27
2022-08-10T14:39:25.237Z,8.40
2022-08-10T14:42:03.001Z,7.30
2022-08-10T14:45:01.994Z,13.65
2022-08-10T14:47:53.791Z,10.18
2022-08-10T14:50:32.417Z,12.43
2022-08-10T14:53:09.499Z,12.02
2022-08-10T14:55:58.996Z,12.20
2022-08-10T14:58:38.862Z,12.95
2022-08-10T15:01:25.484Z,25.27
2022-08-10T15:04:02.251Z,19.38
2022-08-10T15:06:37.858Z,14.40
2022-08-10T15:09:19.125Z,14.82
2022-08-10T15:12:14.922Z,12.48
2022-08-10T15:14:42.514Z,13.52
2022-08-10T15:17:14.288Z,18.25
2022-08-10T15:20:02.352Z,15.50
2022-08-10T15:22:38.104Z,14.30
2022-08-10T15:25:18.290Z,15.27
2022-08-10T15:27:54.623Z,11.13
2022-08-10T15:30:29.969Z,11.93
2022-08-10T15:33:57.510Z,11.02
2022-08-10T15:36:32.945Z,10.35
2022-08-10T15:39:02.953Z,11.35
2022-08-10T15:41:57.459Z,12.55
2022-08-10T15:44:49.903Z,11.32
2022-08-10T15:47:46.131Z,11.27
2022-08-10T15:50:19.937Z,11.45
2022-08-10T15:53:00.683Z,14.38
2022-08-10T15:55:45.802Z,11.23
2022-08-10T15:58:38.982Z,13.88
2022-08-10T16:02:14.761Z,9.98
2022-08-10T16:04:37.689Z,14.63
2022-08-10T16:07:16.471Z,13.70
2022-08-10T16:10:24.033Z,9.43
2022-08-10T16:12:44.757Z,12.38
2022-08-10T16:15:29.138Z,11.35
2022-08-10T16:18:08.957Z,12.90
2022-08-10T16:20:54.576Z,9.32
2022-08-10T16:23:35.113Z,9.82
2022-08-10T16:26:14.961Z,11.63
2022-08-10T16:28:51.570Z,10.15
2022-08-10T16:31:21.510Z,10.90
2022-08-10T16:33:53.468Z,8.15
2022-08-10T16:36:22.152Z,11.07
2022-08-10T16:38:50.766Z,12.18
2022-08-10T16:42:03.355Z,7.75
2022-08-10T16:44:10.875Z,8.07
2022-08-10T16:46:43.738Z,5.82
2022-08-10T16:49:12.787Z,6.60
2022-08-10T16:51:41.213Z,8.88
2022-08-10T16:54:12.562Z,7.82
2022-08-10T16:56:48.589Z,6.85
2022-08-10T16:59:21.010Z,7.20
2022-08-10T17:01:54.226Z,8.13
2022-08-10T17:04:23.598Z,5.03
2022-08-10T17:07:08.216Z,7.53
2022-08-10T17:09:37.373Z,8.40
2022-08-10T17:12:13.373Z,8.82
2022-08-10T17:14:41.852Z,5.18
2022-08-10T17:17:12.587Z,4.30
2022-08-10T17:19:47.492Z,5.15
2022-08-10T17:22:19.009Z,5.30
2022-08-10T17:25:12.973Z,4.97
2022-08-10T17:28:03.924Z,8.80
2022-08-10T17:30:35.370Z,5.43
2022-08-10T17:33:20.159Z,4.95
2022-08-10T17:35:49.549Z,7.78
2022-08-10T17:38:20.945Z,5.90
2022-08-10T17:40:50.968Z,7.13
2022-08-10T17:43:58.372Z,18.33
2022-08-10T17:46:12.558Z,7.70
2022-08-10T17:48:41.910Z,5.95
2022-08-10T17:51:12.528Z,5.13
2022-08-10T17:53:47.104Z,6.72
2022-08-10T17:56:15.661Z,9.45
2022-08-10T17:58:51.139Z,4.60
2022-08-10T18:01:41.239Z,4.28
2022-08-10T18:04:14.393Z,6.90
2022-08-10T18:06:43.368Z,5.07
2022-08-10T18:09:18.696Z,4.95
2022-08-10T18:11:49.580Z,4.38
2022-08-10T18:14:19.385Z,4.82
2022-08-10T18:16:49.142Z,4.15
2022-08-10T18:19:18.048Z,5.63
2022-08-10T18:21:47.289Z,4.57
2022-08-10T18:24:21.529Z,9.43
2022-08-10T18:26:51.073Z,7.03
2022-08-10T18:29:29.940Z,5.97
2022-08-10T18:32:01.937Z,5.85
2022-08-10T18:36:57.064Z,5.00
2022-08-10T18:39:29.599Z,3.83
2022-08-10T18:42:09.849Z,6.60
2022-08-10T18:44:41.058Z,4.65
2022-08-10T18:47:17.880Z,4.68
2022-08-10T18:49:58.937Z,4.22
2022-08-10T18:52:29.761Z,6.97
2022-08-10T18:55:14.447Z,4.93
2022-08-10T18:57:57.780Z,4.88
2022-08-10T19:00:41.245Z,4.97
2022-08-10T19:03:22.891Z,6.47
2022-08-10T19:06:09.348Z,5.20
2022-08-10T19:09:09.622Z,6.30
2022-08-10T19:12:31.175Z,4.38
2022-08-10T19:15:17.003Z,5.07
2022-08-10T19:18:04.053Z,5.80
2022-08-10T19:20:36.425Z,9.82
2022-08-10T19:23:06.059Z,4.95
2022-08-10T19:26:38.051Z,6.80
2022-08-10T19:28:53.226Z,3.78
2022-08-10T19:31:43.940Z,8.60
2022-08-10T19:34:37.419Z,4.45
2022-08-10T19:37:15.402Z,5.00
2022-08-10T19:39:59.373Z,6.18
2022-08-10T19:42:39.237Z,4.90
2022-08-10T19:46:01.531Z,5.47
2022-08-10T19:48:42.603Z,6.72
2022-08-10T19:51:49.082Z,4.10
2022-08-10T19:54:30.949Z,5.53
2022-08-10T19:57:27.740Z,6.82
2022-08-10T20:00:18.649Z,5.45
2022-08-10T20:06:15.339Z,4.65
2022-08-10T20:09:01.356Z,5.15
2022-08-10T20:11:50.749Z,5.82
2022-08-10T20:14:22.211Z,6.60
2022-08-10T20:16:51.626Z,4.60
2022-08-10T20:19:52.839Z,5.50
2022-08-10T20:22:28.979Z,5.20
2022-08-10T20:25:16.682Z,8.43
2022-08-10T20:28:06.848Z,9.90
2022-08-10T20:30:37.755Z,3.80
2022-08-10T20:33:17.362Z,4.05
2022-08-10T20:35:50.230Z,5.40
2022-08-10T20:38:29.015Z,5.53
2022-08-10T20:41:11.228Z,4.90
2022-08-10T20:48:54.619Z,5.45
2022-08-10T20:51:26.317Z,4.60
2022-08-10T20:54:15.403Z,6.95
2022-08-10T20:57:55.282Z,5.47
2022-08-10T21:00:14.180Z,5.20
2022-08-10T21:02:47.935Z,6.82
2022-08-10T21:05:25.399Z,5.82
2022-08-10T21:08:08.833Z,6.43
2022-08-10T21:10:57.832Z,4.47
2022-08-10T21:13:36.131Z,6.18
2022-08-10T21:16:14.776Z,9.05
2022-08-10T21:19:00.442Z,11.30
2022-08-10T21:22:04.191Z,5.00
2022-08-10T21:24:48.393Z,9.98
2022-08-10T21:27:37.454Z,5.50
2022-08-10T21:30:09.720Z,6.38
2022-08-10T21:32:59.332Z,9.02
2022-08-10T21:35:37.494Z,7.93
2022-08-10T21:38:26.806Z,4.97
2022-08-10T21:41:18.005Z,15.15
2022-08-10T21:44:16.529Z,6.43
2022-08-10T21:47:11.508Z,5.10
2022-08-10T21:50:24.710Z,6.65
2022-08-10T21:53:19.317Z,6.03
2022-08-10T21:56:22.408Z,6.53
2022-08-10T21:59:38.425Z,5.82
2022-08-10T22:02:28.022Z,8.50
2022-08-10T22:05:18.561Z,8.40
2022-08-10T22:08:12.079Z,5.75
2022-08-10T22:11:06.610Z,8.70
2022-08-10T22:13:56.292Z,5.28
2022-08-10T22:17:01.092Z,5.68
2022-08-10T22:19:51.384Z,5.63
2022-08-10T22:22:45.178Z,8.38
2022-08-10T22:26:06.993Z,6.68
2022-08-10T22:29:03.575Z,5.93
2022-08-10T22:32:15.495Z,6.68
2022-08-10T22:35:10.658Z,9.35
2022-08-10T23:01:01.031Z,7.75
2022-08-10T23:03:30.403Z,6.43
2022-08-10T23:06:11.571Z,8.02
2022-08-10T23:08:46.972Z,7.28
2022-08-10T23:11:22.451Z,8.55
2022-08-10T23:13:57.476Z,6.32
2022-08-10T23:16:47.522Z,10.80
2022-08-10T23:19:20.601Z,7.07
2022-08-10T23:22:05.035Z,9.27
2022-08-10T23:24:34.932Z,7.13
2022-08-10T23:27:12.037Z,6.70
2022-08-10T23:29:43.652Z,8.05
2022-08-10T23:32:32.929Z,8.32
2022-08-10T23:36:05.634Z,10.57
2022-08-10T23:37:57.454Z,6.70
2022-08-10T23:40:25.832Z,7.95
2022-08-10T23:42:53.284Z,7.18
2022-08-10T23:45:26.846Z,7.75
2022-08-10T23:47:58.412Z,9.13
2022-08-10T23:50:28.175Z,8.55
2022-08-10T23:53:02.559Z,6.75
2022-08-10T23:55:49.068Z,8.00
2022-08-10T23:58:33.443Z,13.27
